Central Il Rgnl Arpt at Bloomington-Normal Airport
KBMI : now visible

Airfield :











YOU CAN JOIN US ON...

 
LOGIN :

Register | Disclaimer

   EN    FR    IT 

 









Legend :    VFR   Marginal VFR   IFR   Intensive IFR   Very Intensive IFR
Visi :
Ceiling :
>= 8 km
>= 3000ft
5 to 8 km
1000 to 3000 ft
1500m to 5 km
500 to 1000 ft
800 to 1500m
200 to 500 ft
< 800m
< 200 ft
Symbols :   Thunderstorms  Fog  Heavy snow  Heavy precipitations  Wind > 20 kt






- Airport Elevation : 871 ft
- IATA code : BMI


KBMI - Central Il Rgnl Arpt at Bloomington-Normal

CURRENT METAR :
  • 091356Z 18011KT 10SM CLR 26/23 A2994 RMK AO2 SLP126 T02610228

EXPIRED METARs :
  • 091256Z 17011KT 10SM CLR 25/22 A2993 RMK AO2 SLP125 T02500222
  • 091156Z 16008KT 9SM CLR 22/22 A2993 RMK AO2 SLP124 T02220217 10228 20211 50005

TAF KBMI
Valid from the 09 at 12:00 until the 10 at 12:00 UTC


091120Z 0912/1012 VRB05KT P6SM SCT250
FM091600 19007KT P6SM SCT050
FM100000 VRB04KT P6SM SHRA VCTS BKN040CB
FM100500 VRB03KT P6SM BKN050
FM100900 VRB03KT P6SM BKN014
KZAU FIR / North America



MET'MAP, your aeronautical weather chart ! - Copyright ORBIFLY December 2007 - Disclaimer

ORBIFLY MET'MAP TEAM :

Programming & Development : Alexandra Zaïnal
Concept & original design : Baudouin d'Aumeries
Assistance for programming : Marc-Olivier Méhu
Technical & hardware support : Manuel Goepfert

Contact : metmap@orbifly.com




SOURCES & CREDITS :

   NOAA       Earth
Advisory